createdAt,value
2018-12-09T00:07:46.822Z,83.49
2018-12-09T00:18:05.301Z,83.56
2018-12-09T00:28:24.239Z,84.09
2018-12-09T00:38:43.281Z,84.98
2018-12-09T00:49:02.251Z,85.95
2018-12-09T00:59:20.957Z,86.28
2018-12-09T01:09:40.198Z,85.18
2018-12-09T01:19:58.588Z,85.80
2018-12-09T01:30:18.331Z,86.14
2018-12-09T01:40:57.096Z,85.75
2018-12-09T01:51:17.233Z,86.00
2018-12-09T02:01:36.487Z,85.85
2018-12-09T02:11:55.196Z,85.54
2018-12-09T02:22:13.781Z,83.82
2018-12-09T02:32:32.559Z,83.25
2018-12-09T02:42:52.545Z,82.63
2018-12-09T02:53:11.816Z,82.24
2018-12-09T03:03:30.685Z,80.26
2018-12-09T03:13:49.076Z,82.89
2018-12-09T03:24:07.794Z,86.23
2018-12-09T03:34:26.550Z,87.83
2018-12-09T03:44:45.434Z,88.31
2018-12-09T03:55:04.254Z,87.70
2018-12-09T04:05:24.151Z,87.75
2018-12-09T04:15:43.613Z,87.59
2018-12-09T04:26:04.579Z,87.86
2018-12-09T04:36:23.041Z,88.04
2018-12-09T04:46:42.289Z,87.31
2018-12-09T04:57:01.272Z,86.71
2018-12-09T05:07:20.696Z,85.95
2018-12-09T05:17:39.831Z,84.19
2018-12-09T05:27:57.925Z,85.17
2018-12-09T05:38:16.774Z,85.32
2018-12-09T05:48:35.882Z,83.39
2018-12-09T05:58:54.765Z,77.79
2018-12-09T06:09:14.466Z,74.78
2018-12-09T06:19:32.791Z,79.48
2018-12-09T06:29:51.708Z,82.30
2018-12-09T06:40:10.183Z,83.97
2018-12-09T06:50:29.040Z,84.41
2018-12-09T07:00:47.873Z,85.67
2018-12-09T07:11:06.999Z,85.78
2018-12-09T07:21:25.768Z,87.47
2018-12-09T07:31:44.465Z,88.78
2018-12-09T07:42:03.489Z,89.71
2018-12-09T07:52:25.093Z,86.33
2018-12-09T08:02:43.614Z,84.99
2018-12-09T08:13:03.314Z,84.16
2018-12-09T08:23:21.614Z,83.27
2018-12-09T08:33:42.059Z,81.96
2018-12-09T08:44:01.214Z,79.03
2018-12-09T08:54:19.960Z,76.62
2018-12-09T09:04:39.370Z,76.98
2018-12-09T09:14:58.266Z,76.75
2018-12-09T09:25:17.146Z,77.35
2018-12-09T09:35:36.419Z,77.92
2018-12-09T09:45:55.158Z,77.45
2018-12-09T09:56:13.847Z,77.00
2018-12-09T10:06:32.898Z,78.16
2018-12-09T10:16:52.401Z,77.66
2018-12-09T10:27:11.832Z,76.73
2018-12-09T10:37:30.594Z,75.38
2018-12-09T10:47:49.178Z,77.38
2018-12-09T10:58:09.425Z,77.62
2018-12-09T11:08:28.557Z,77.62
2018-12-09T11:18:47.942Z,78.49
2018-12-09T11:29:06.352Z,79.36
2018-12-09T11:39:25.783Z,78.38
2018-12-09T11:49:45.488Z,79.33
2018-12-09T12:00:05.537Z,78.83
2018-12-09T12:10:24.524Z,78.63
2018-12-09T12:20:43.702Z,78.08
2018-12-09T12:31:04.054Z,77.49
2018-12-09T12:41:22.320Z,78.41
2018-12-09T12:51:41.940Z,76.62
2018-12-09T13:02:01.765Z,76.35
2018-12-09T13:12:20.905Z,75.77
2018-12-09T13:22:39.603Z,77.83
2018-12-09T13:33:00.605Z,77.79
2018-12-09T13:43:21.223Z,79.04
2018-12-09T13:53:42.006Z,78.60
2018-12-09T14:04:03.970Z,75.77
2018-12-09T14:14:23.507Z,74.99
2018-12-09T14:24:42.944Z,72.31
2018-12-09T14:35:03.760Z,73.16
2018-12-09T14:45:23.246Z,72.57
2018-12-09T14:55:43.925Z,68.67
2018-12-09T15:06:03.610Z,70.03
2018-12-09T15:16:23.275Z,70.15
2018-12-09T15:26:43.216Z,68.61
2018-12-09T15:37:03.898Z,69.40
2018-12-09T15:47:23.272Z,70.41
2018-12-09T15:57:44.041Z,74.74
2018-12-09T16:08:04.343Z,77.57
2018-12-09T16:18:23.578Z,79.08
2018-12-09T16:28:44.670Z,78.89
2018-12-09T16:39:06.407Z,78.02
2018-12-09T16:49:26.785Z,75.36
2018-12-09T16:59:46.843Z,73.66
2018-12-09T17:10:07.215Z,73.92
2018-12-09T17:20:27.189Z,74.42
2018-12-09T17:30:47.464Z,74.02
2018-12-09T17:41:06.735Z,73.25
2018-12-09T17:51:26.086Z,73.13
2018-12-09T18:01:48.006Z,73.23
2018-12-09T18:12:08.843Z,72.64
2018-12-09T18:22:29.831Z,72.12
2018-12-09T18:32:51.888Z,70.45
2018-12-09T18:43:16.413Z,70.16
2018-12-09T18:54:19.510Z,70.56
2018-12-09T19:04:38.887Z,69.71
2018-12-09T19:15:00.335Z,70.79
2018-12-09T19:25:22.082Z,69.79
2018-12-09T19:35:46.177Z,70.61
2018-12-09T19:46:08.536Z,70.39
2018-12-09T19:56:29.679Z,69.78
2018-12-09T20:06:51.655Z,69.94
2018-12-09T20:17:11.877Z,69.63
2018-12-09T20:27:32.353Z,69.77
2018-12-09T20:37:54.577Z,70.72
2018-12-09T20:48:17.974Z,71.24
2018-12-09T20:58:38.646Z,71.21
2018-12-09T21:08:59.838Z,71.94
2018-12-09T21:19:23.926Z,71.58
2018-12-09T21:29:43.516Z,72.18
2018-12-09T21:40:02.398Z,73.81
2018-12-09T21:50:23.086Z,76.41
2018-12-09T22:00:42.322Z,78.99
2018-12-09T22:11:03.056Z,78.97
2018-12-09T22:21:24.568Z,77.06
2018-12-09T22:31:46.210Z,74.02
2018-12-09T22:42:06.584Z,74.33
2018-12-09T22:52:27.348Z,74.04
2018-12-09T23:03:05.777Z,73.96
2018-12-09T23:13:25.824Z,73.52
2018-12-09T23:23:45.284Z,73.95
2018-12-09T23:34:05.258Z,72.96
2018-12-09T23:44:24.732Z,72.69
2018-12-09T23:54:44.135Z,73.38
